AGROMETEOROLOŠKI PORTAL

vinorodna pokrajina

Temelj dobrega kmetovanja

Pregled podatkov za lokacijo CERKLJE - LETALIŠČE ARSO, meteorološka postaja 112

Pregled senzorjev na lokaciji

ID Ime Zadnja
vrednost
Datum in čas
meritve
(lokalni čas)
Tip
senzorja
6028 Zračni tlak (hPa) 1004 hPa 4.10.2022 15:30 ARSO
2639 Sončno sevanje (W/m2) 530 W/m2 4.10.2022 15:30 ARSO
2645 Padavine (mm) 0 mm 4.10.2022 15:30 ARSO
2653 Relativna zračna vlaga (2 m) (% RH) 47 % RH 4.10.2022 15:30 ARSO
5934 Temperatura tal (5 cm) (°C) 0 °C 4.10.2022 15:30 ARSO
5935 Temperatura tal (10 cm) (°C) 0 °C 4.10.2022 15:30 ARSO
5936 Temperatura tal (30 cm) (°C) 19,1 °C 4.10.2022 15:30 ARSO
2652 Temperatura (2 m) (°C) 19,7 °C 4.10.2022 15:30 ARSO
2657 Smer vetra (2 m) (°) 248 ° 4.10.2022 15:30 ARSO
2658 Hitrost vetra (2 m) (km/h) 4 km/h 4.10.2022 15:30 ARSO

Pregled podatkov zadnjih 24 ur

Zap.
št.
Datum in čas
(lokalni čas)
CERKLJE - LETALIŠČE ARSO
Zračni
tlak
Sončno
sevanje
Padavine Relativna
zračna
vlaga
(2
m)
Temperatura
tal
(5
cm)
Temperatura
tal
(10
cm)
Temperatura
tal
(30
cm)
Temperatura
(2
m)
Smer
vetra
(2
m)
Hitrost
vetra
(2
m)
1 4.10.2022 15:30 1004 530 0 47 0 0 19,1 19,7 248 4
2 4.10.2022 15:00 1004,1 447 0 47 0 0 18,7 19,4 254 3
3 4.10.2022 14:30 1004,2 606 0 47 0 0 18,3 19,1 185 4
4 4.10.2022 14:00 1004,4 636 0 52 0 0 17,8 18,3 88 5
5 4.10.2022 13:30 1004,8 577 0 52 0 0 17,4 17,8 119 4
6 4.10.2022 13:00 1005 462 0 54 0 0 16,9 17 118 6
7 4.10.2022 12:30 1005,1 534 0 59 0 0 16,2 16,9 153 3
8 4.10.2022 12:00 1005,2 635 0 63 0 0 15,6 16,1 205 3
9 4.10.2022 11:30 1005,3 581 0 68 0 0 15 14,8 240 2
10 4.10.2022 11:00 1005,4 478 0 76 0 0 14,4 13,3 261 3
11 4.10.2022 10:30 1005,4 473 0 82 0 0 13,9 11,7 272 5
12 4.10.2022 10:00 1005,3 509 0 89 0 0 13,6 10,2 282 4
13 4.10.2022 09:30 1005,2 307 0 94 0 0 13,4 8,8 294 5
14 4.10.2022 09:00 1005,1 157 0 96 0 0 13,4 7,2 246 3
15 4.10.2022 08:30 1005 75 0 97 0 0 13,4 6,4 237 4
16 4.10.2022 08:00 1004,8 53 0 98 0 0 13,5 5,7 251 5
17 4.10.2022 07:30 1004,4 26 0 97 0 0 13,7 5,1 280 4
18 4.10.2022 07:00 1004,2 2 0 96 0 0 13,8 5 241 3
19 4.10.2022 06:30 1004,1 2 0 96 0 0 14 5 272 3
20 4.10.2022 06:00 1004,2 1 0 97 0 0 14,1 5,6 265 4
21 4.10.2022 05:30 1004,2 1 0 97 0 0 14,3 5,6 276 3
22 4.10.2022 05:00 1004,1 1 0 96 0 0 14,5 5,6 261 4
23 4.10.2022 04:30 1004,1 1 0 96 0 0 14,7 6,2 319 4
24 4.10.2022 04:00 1004,1 2 0 95 0 0 14,9 6,2 271 2
25 4.10.2022 03:30 1004,3 1 0 94 0 0 15,2 6,5 245 4
26 4.10.2022 03:00 1004,5 2 0 94 0 0 15,4 6,9 258 4
27 4.10.2022 02:30 1004,5 1 0 95 0 0 15,6 7,5 320 4
28 4.10.2022 02:00 1004,4 1 0 95 0 0 15,9 7,6 204 3
29 4.10.2022 01:30 1004,2 2 0 94 0 0 16,1 7,8 233 2
30 4.10.2022 01:00 1004 1 0 92 0 0 16,4 8,3 242 3
31 4.10.2022 00:30 1004,1 2 0 90 0 0 16,6 8,9 18 5
32 4.10.2022 00:00 1003,9 1 0 89 0 0 16,8 9,5 45 4
33 3.10.2022 23:30 1003,9 2 0 89 0 0 17,1 10,1 97 4
34 3.10.2022 23:00 1003,6 2 0 89 0 0 17,3 10,7 45 2
35 3.10.2022 22:30 1003,5 1 0 89 0 0 17,5 11 62 2
36 3.10.2022 22:00 1003,4 1 0 89 0 0 17,8 10,9 86 2
37 3.10.2022 21:30 1003,1 1 0 88 0 0 18,1 11 277 2
38 3.10.2022 21:00 1002,8 2 0 86 0 0 18,4 11,5 245 2
39 3.10.2022 20:30 1002,6 2 0 80 0 0 18,8 12,6 111 3
40 3.10.2022 20:00 1002,3 2 0 78 0 0 19,1 13,2 142 4
41 3.10.2022 19:30 1002 3 0 73 0 0 19,5 14,4 126 3
42 3.10.2022 19:00 1001,6 6 0 65 0 0 19,9 15,9 131 6
43 3.10.2022 18:30 1001,4 31 0 59 0 0 20,2 17,4 83 8
44 3.10.2022 18:00 1001,1 87 0 53 0 0 20,5 19,1 80 8
45 3.10.2022 17:30 1001 165 0 49 0 0 20,8 19,6 68 10
46 3.10.2022 17:00 1000,9 236 0 49 0 0 21 19,6 81 11